Terminal Aerodrome Forecast
Issued by NWS

Home | Current Version | Previous Version | Text Only | Print | Product List | Glossary On
Versions: 1 2 3 4 5 6 7 8 9 10 11 12 13 14 15 16 17 18 19 20
000
FTUS46 KHNX 212330
TAFMER
TAF
KMER 212330Z 2200/2224 VRB05KT 6SM HZ BKN250
     FM221000 00000KT 2SM BR SCT250
     FM221200 00000KT 1/2SM FG VV002
      TEMPO 2214/2217 1/4SM FG BKN001
     FM221700 VRB03KT 1 1/2SM BR BKN003
     FM221800 VRB03KT 3SM BR BKN005
     FM221900 VRB04KT 5SM HZ SKC=

USA.gov is the U.S. government's official web portal to all federal, state and local government web resources and services.